sensor_id;sensor_type;location;lat;lon;timestamp;P1;durP1;ratioP1;P2;durP2;ratioP2
16878;SDS011;8556;52.218;9.884;2023-02-15T00:02:01;19.77;;;11.37;;
16878;SDS011;8556;52.218;9.884;2023-02-15T00:04:27;18.53;;;11.57;;
16878;SDS011;8556;52.218;9.884;2023-02-15T00:07:11;17.80;;;10.97;;
16878;SDS011;8556;52.218;9.884;2023-02-15T00:09:39;20.33;;;10.47;;
16878;SDS011;8556;52.218;9.884;2023-02-15T00:12:06;19.20;;;10.23;;
16878;SDS011;8556;52.218;9.884;2023-02-15T00:14:32;17.97;;;10.23;;
16878;SDS011;8556;52.218;9.884;2023-02-15T00:17:01;17.67;;;9.50;;
16878;SDS011;8556;52.218;9.884;2023-02-15T00:19:27;17.63;;;9.30;;
16878;SDS011;8556;52.218;9.884;2023-02-15T00:21:54;20.90;;;11.20;;
16878;SDS011;8556;52.218;9.884;2023-02-15T00:24:21;16.50;;;10.20;;
16878;SDS011;8556;52.218;9.884;2023-02-15T00:26:48;18.40;;;9.27;;
16878;SDS011;8556;52.218;9.884;2023-02-15T00:29:15;18.73;;;10.43;;
16878;SDS011;8556;52.218;9.884;2023-02-15T00:31:43;16.93;;;9.03;;
16878;SDS011;8556;52.218;9.884;2023-02-15T00:34:12;18.97;;;10.17;;
16878;SDS011;8556;52.218;9.884;2023-02-15T00:36:40;16.87;;;10.57;;
16878;SDS011;8556;52.218;9.884;2023-02-15T00:39:07;18.37;;;9.90;;
16878;SDS011;8556;52.218;9.884;2023-02-15T00:41:34;15.50;;;9.10;;
16878;SDS011;8556;52.218;9.884;2023-02-15T00:44:01;16.83;;;9.27;;
16878;SDS011;8556;52.218;9.884;2023-02-15T00:46:28;14.13;;;8.63;;
16878;SDS011;8556;52.218;9.884;2023-02-15T00:48:55;16.07;;;9.20;;
16878;SDS011;8556;52.218;9.884;2023-02-15T00:51:23;18.00;;;10.70;;
16878;SDS011;8556;52.218;9.884;2023-02-15T00:53:50;16.63;;;9.90;;
16878;SDS011;8556;52.218;9.884;2023-02-15T00:56:18;18.80;;;10.23;;
16878;SDS011;8556;52.218;9.884;2023-02-15T00:58:45;17.70;;;9.53;;
16878;SDS011;8556;52.218;9.884;2023-02-15T01:01:12;17.43;;;9.30;;
16878;SDS011;8556;52.218;9.884;2023-02-15T01:03:41;18.97;;;10.27;;
16878;SDS011;8556;52.218;9.884;2023-02-15T01:06:08;17.97;;;9.73;;
16878;SDS011;8556;52.218;9.884;2023-02-15T01:08:37;17.60;;;9.73;;
16878;SDS011;8556;52.218;9.884;2023-02-15T01:11:04;18.33;;;10.20;;
16878;SDS011;8556;52.218;9.884;2023-02-15T01:13:32;19.83;;;10.87;;
16878;SDS011;8556;52.218;9.884;2023-02-15T01:15:59;19.37;;;11.93;;
16878;SDS011;8556;52.218;9.884;2023-02-15T01:18:26;19.43;;;10.90;;
16878;SDS011;8556;52.218;9.884;2023-02-15T01:20:53;17.93;;;10.17;;
16878;SDS011;8556;52.218;9.884;2023-02-15T01:23:20;18.33;;;9.70;;
16878;SDS011;8556;52.218;9.884;2023-02-15T01:25:48;18.93;;;9.63;;
16878;SDS011;8556;52.218;9.884;2023-02-15T01:28:15;17.40;;;9.50;;
16878;SDS011;8556;52.218;9.884;2023-02-15T01:30:42;17.30;;;10.53;;
16878;SDS011;8556;52.218;9.884;2023-02-15T01:33:09;18.47;;;9.70;;
16878;SDS011;8556;52.218;9.884;2023-02-15T01:35:42;19.13;;;10.50;;
16878;SDS011;8556;52.218;9.884;2023-02-15T01:38:10;18.83;;;10.17;;
16878;SDS011;8556;52.218;9.884;2023-02-15T01:40:37;16.60;;;9.37;;
16878;SDS011;8556;52.218;9.884;2023-02-15T01:43:09;17.90;;;9.40;;
16878;SDS011;8556;52.218;9.884;2023-02-15T01:45:37;19.07;;;11.70;;
16878;SDS011;8556;52.218;9.884;2023-02-15T01:48:05;18.27;;;10.33;;
16878;SDS011;8556;52.218;9.884;2023-02-15T01:50:40;17.83;;;9.83;;
16878;SDS011;8556;52.218;9.884;2023-02-15T01:53:12;18.63;;;9.90;;
16878;SDS011;8556;52.218;9.884;2023-02-15T01:55:43;17.63;;;9.23;;
16878;SDS011;8556;52.218;9.884;2023-02-15T01:58:17;16.23;;;9.10;;
16878;SDS011;8556;52.218;9.884;2023-02-15T02:00:45;15.07;;;8.90;;
16878;SDS011;8556;52.218;9.884;2023-02-15T02:03:13;17.13;;;10.27;;
16878;SDS011;8556;52.218;9.884;2023-02-15T02:05:40;17.77;;;9.70;;
16878;SDS011;8556;52.218;9.884;2023-02-15T02:08:07;16.90;;;9.47;;
16878;SDS011;8556;52.218;9.884;2023-02-15T02:10:34;19.00;;;9.43;;
16878;SDS011;8556;52.218;9.884;2023-02-15T02:13:02;16.77;;;8.80;;
16878;SDS011;8556;52.218;9.884;2023-02-15T02:15:34;16.57;;;9.07;;
16878;SDS011;8556;52.218;9.884;2023-02-15T02:18:08;16.27;;;10.03;;
16878;SDS011;8556;52.218;9.884;2023-02-15T02:20:58;17.50;;;10.63;;
16878;SDS011;8556;52.218;9.884;2023-02-15T02:23:43;17.03;;;10.23;;
16878;SDS011;8556;52.218;9.884;2023-02-15T02:26:47;17.47;;;10.63;;
16878;SDS011;8556;52.218;9.884;2023-02-15T02:29:33;15.47;;;9.77;;
16878;SDS011;8556;52.218;9.884;2023-02-15T02:35:38;16.47;;;9.70;;
16878;SDS011;8556;52.218;9.884;2023-02-15T02:38:11;15.83;;;9.80;;
16878;SDS011;8556;52.218;9.884;2023-02-15T02:40:48;16.40;;;9.30;;
16878;SDS011;8556;52.218;9.884;2023-02-15T02:43:24;15.77;;;9.40;;
16878;SDS011;8556;52.218;9.884;2023-02-15T02:45:57;16.60;;;9.43;;
16878;SDS011;8556;52.218;9.884;2023-02-15T02:48:27;16.73;;;9.27;;
16878;SDS011;8556;52.218;9.884;2023-02-15T02:50:59;15.53;;;7.97;;
16878;SDS011;8556;52.218;9.884;2023-02-15T02:53:26;17.37;;;8.47;;
16878;SDS011;8556;52.218;9.884;2023-02-15T02:55:56;15.30;;;9.37;;
16878;SDS011;8556;52.218;9.884;2023-02-15T02:58:26;16.70;;;8.40;;
16878;SDS011;8556;52.218;9.884;2023-02-15T03:01:01;14.67;;;9.03;;
16878;SDS011;8556;52.218;9.884;2023-02-15T03:03:32;15.27;;;8.10;;
16878;SDS011;8556;52.218;9.884;2023-02-15T03:06:05;14.47;;;8.87;;
16878;SDS011;8556;52.218;9.884;2023-02-15T03:08:37;18.70;;;9.97;;
16878;SDS011;8556;52.218;9.884;2023-02-15T03:11:08;16.53;;;9.40;;
16878;SDS011;8556;52.218;9.884;2023-02-15T03:13:37;15.70;;;9.40;;
16878;SDS011;8556;52.218;9.884;2023-02-15T03:16:05;16.20;;;8.53;;
16878;SDS011;8556;52.218;9.884;2023-02-15T03:18:51;16.77;;;9.23;;
16878;SDS011;8556;52.218;9.884;2023-02-15T03:21:25;18.70;;;10.63;;
16878;SDS011;8556;52.218;9.884;2023-02-15T03:23:59;16.17;;;9.27;;
16878;SDS011;8556;52.218;9.884;2023-02-15T03:26:30;17.83;;;10.50;;
16878;SDS011;8556;52.218;9.884;2023-02-15T03:28:58;15.73;;;8.37;;
16878;SDS011;8556;52.218;9.884;2023-02-15T03:31:26;16.80;;;9.93;;
16878;SDS011;8556;52.218;9.884;2023-02-15T03:33:57;20.30;;;12.50;;
16878;SDS011;8556;52.218;9.884;2023-02-15T03:36:30;20.47;;;11.83;;
16878;SDS011;8556;52.218;9.884;2023-02-15T03:39:04;22.33;;;11.73;;
16878;SDS011;8556;52.218;9.884;2023-02-15T03:41:39;16.87;;;9.00;;
16878;SDS011;8556;52.218;9.884;2023-02-15T03:44:13;17.37;;;10.03;;
16878;SDS011;8556;52.218;9.884;2023-02-15T03:46:43;16.00;;;8.70;;
16878;SDS011;8556;52.218;9.884;2023-02-15T03:49:16;16.60;;;9.43;;
16878;SDS011;8556;52.218;9.884;2023-02-15T03:51:48;15.37;;;9.63;;
16878;SDS011;8556;52.218;9.884;2023-02-15T03:54:19;19.20;;;10.83;;
16878;SDS011;8556;52.218;9.884;2023-02-15T03:57:02;16.60;;;9.03;;
16878;SDS011;8556;52.218;9.884;2023-02-15T03:59:48;16.33;;;9.90;;
16878;SDS011;8556;52.218;9.884;2023-02-15T04:02:33;19.53;;;10.50;;
16878;SDS011;8556;52.218;9.884;2023-02-15T04:05:04;20.93;;;11.30;;
16878;SDS011;8556;52.218;9.884;2023-02-15T04:07:33;19.60;;;10.53;;
16878;SDS011;8556;52.218;9.884;2023-02-15T04:10:00;17.87;;;10.83;;
16878;SDS011;8556;52.218;9.884;2023-02-15T04:12:44;18.30;;;9.37;;
16878;SDS011;8556;52.218;9.884;2023-02-15T04:15:11;17.57;;;8.73;;
16878;SDS011;8556;52.218;9.884;2023-02-15T04:17:56;18.70;;;10.27;;
16878;SDS011;8556;52.218;9.884;2023-02-15T04:20:23;16.20;;;9.33;;
16878;SDS011;8556;52.218;9.884;2023-02-15T04:23:09;17.57;;;10.03;;
16878;SDS011;8556;52.218;9.884;2023-02-15T04:25:53;22.33;;;13.63;;
16878;SDS011;8556;52.218;9.884;2023-02-15T04:28:19;21.13;;;12.70;;
16878;SDS011;8556;52.218;9.884;2023-02-15T04:30:46;19.07;;;10.50;;
16878;SDS011;8556;52.218;9.884;2023-02-15T04:33:13;17.60;;;9.97;;
16878;SDS011;8556;52.218;9.884;2023-02-15T04:35:40;17.27;;;10.50;;
16878;SDS011;8556;52.218;9.884;2023-02-15T04:38:06;16.60;;;10.27;;
16878;SDS011;8556;52.218;9.884;2023-02-15T04:40:35;18.70;;;9.90;;
16878;SDS011;8556;52.218;9.884;2023-02-15T04:43:01;18.07;;;9.17;;
16878;SDS011;8556;52.218;9.884;2023-02-15T04:45:28;16.63;;;9.70;;
16878;SDS011;8556;52.218;9.884;2023-02-15T04:47:55;17.00;;;10.13;;
16878;SDS011;8556;52.218;9.884;2023-02-15T04:50:22;17.97;;;9.27;;
16878;SDS011;8556;52.218;9.884;2023-02-15T04:52:49;17.73;;;10.63;;
16878;SDS011;8556;52.218;9.884;2023-02-15T04:55:17;20.23;;;11.57;;
16878;SDS011;8556;52.218;9.884;2023-02-15T04:57:43;19.80;;;11.57;;
16878;SDS011;8556;52.218;9.884;2023-02-15T05:00:12;18.10;;;9.97;;
16878;SDS011;8556;52.218;9.884;2023-02-15T05:02:38;23.83;;;12.80;;
16878;SDS011;8556;52.218;9.884;2023-02-15T05:05:05;22.73;;;13.33;;
16878;SDS011;8556;52.218;9.884;2023-02-15T05:07:34;23.10;;;12.77;;
16878;SDS011;8556;52.218;9.884;2023-02-15T05:10:01;23.03;;;12.83;;
16878;SDS011;8556;52.218;9.884;2023-02-15T05:12:29;22.23;;;12.80;;
16878;SDS011;8556;52.218;9.884;2023-02-15T05:14:56;24.03;;;13.30;;
16878;SDS011;8556;52.218;9.884;2023-02-15T05:17:22;24.97;;;12.70;;
16878;SDS011;8556;52.218;9.884;2023-02-15T05:19:49;21.03;;;13.20;;
16878;SDS011;8556;52.218;9.884;2023-02-15T05:22:16;24.23;;;14.03;;
16878;SDS011;8556;52.218;9.884;2023-02-15T05:24:43;24.00;;;13.63;;
16878;SDS011;8556;52.218;9.884;2023-02-15T05:27:29;23.97;;;13.97;;
16878;SDS011;8556;52.218;9.884;2023-02-15T05:30:14;22.93;;;13.13;;
16878;SDS011;8556;52.218;9.884;2023-02-15T05:32:41;23.17;;;11.83;;
16878;SDS011;8556;52.218;9.884;2023-02-15T05:35:07;23.53;;;13.43;;
16878;SDS011;8556;52.218;9.884;2023-02-15T05:37:39;23.97;;;14.93;;
16878;SDS011;8556;52.218;9.884;2023-02-15T05:40:06;22.90;;;13.30;;
16878;SDS011;8556;52.218;9.884;2023-02-15T05:42:35;22.97;;;14.07;;
16878;SDS011;8556;52.218;9.884;2023-02-15T05:45:02;21.87;;;12.73;;
16878;SDS011;8556;52.218;9.884;2023-02-15T05:47:29;27.23;;;14.73;;
16878;SDS011;8556;52.218;9.884;2023-02-15T05:49:56;24.90;;;14.10;;
16878;SDS011;8556;52.218;9.884;2023-02-15T05:52:22;26.77;;;14.70;;
16878;SDS011;8556;52.218;9.884;2023-02-15T05:54:49;25.10;;;14.67;;
16878;SDS011;8556;52.218;9.884;2023-02-15T05:57:16;22.73;;;13.67;;
16878;SDS011;8556;52.218;9.884;2023-02-15T05:59:44;22.97;;;14.27;;
16878;SDS011;8556;52.218;9.884;2023-02-15T06:02:11;22.33;;;13.60;;
16878;SDS011;8556;52.218;9.884;2023-02-15T06:04:38;24.37;;;14.23;;
16878;SDS011;8556;52.218;9.884;2023-02-15T06:07:04;23.73;;;13.77;;
16878;SDS011;8556;52.218;9.884;2023-02-15T06:09:31;24.33;;;12.03;;
16878;SDS011;8556;52.218;9.884;2023-02-15T06:11:58;26.33;;;14.00;;
16878;SDS011;8556;52.218;9.884;2023-02-15T06:14:25;22.60;;;13.47;;
16878;SDS011;8556;52.218;9.884;2023-02-15T06:16:53;24.40;;;14.17;;
16878;SDS011;8556;52.218;9.884;2023-02-15T06:19:20;25.27;;;13.73;;
16878;SDS011;8556;52.218;9.884;2023-02-15T06:21:47;25.10;;;14.20;;
16878;SDS011;8556;52.218;9.884;2023-02-15T06:24:14;23.23;;;13.17;;
16878;SDS011;8556;52.218;9.884;2023-02-15T06:26:41;23.50;;;13.93;;
16878;SDS011;8556;52.218;9.884;2023-02-15T06:29:07;24.27;;;12.93;;
16878;SDS011;8556;52.218;9.884;2023-02-15T06:31:34;23.00;;;12.90;;
16878;SDS011;8556;52.218;9.884;2023-02-15T06:34:02;23.07;;;13.03;;
16878;SDS011;8556;52.218;9.884;2023-02-15T06:36:30;23.93;;;14.67;;
16878;SDS011;8556;52.218;9.884;2023-02-15T06:38:57;23.30;;;14.13;;
16878;SDS011;8556;52.218;9.884;2023-02-15T06:41:24;23.80;;;13.73;;
16878;SDS011;8556;52.218;9.884;2023-02-15T06:43:51;23.90;;;14.47;;
16878;SDS011;8556;52.218;9.884;2023-02-15T06:46:18;24.77;;;14.57;;
16878;SDS011;8556;52.218;9.884;2023-02-15T06:48:44;23.37;;;12.30;;
16878;SDS011;8556;52.218;9.884;2023-02-15T06:51:13;22.93;;;13.40;;
16878;SDS011;8556;52.218;9.884;2023-02-15T06:53:39;23.53;;;13.07;;
16878;SDS011;8556;52.218;9.884;2023-02-15T06:56:08;22.03;;;13.43;;
16878;SDS011;8556;52.218;9.884;2023-02-15T06:58:36;24.60;;;13.73;;
16878;SDS011;8556;52.218;9.884;2023-02-15T07:01:03;23.50;;;13.47;;
16878;SDS011;8556;52.218;9.884;2023-02-15T07:03:31;23.13;;;13.73;;
16878;SDS011;8556;52.218;9.884;2023-02-15T07:05:59;22.20;;;13.23;;
16878;SDS011;8556;52.218;9.884;2023-02-15T07:08:29;22.57;;;13.40;;
16878;SDS011;8556;52.218;9.884;2023-02-15T07:10:56;22.60;;;12.90;;
16878;SDS011;8556;52.218;9.884;2023-02-15T07:13:43;22.30;;;13.77;;
16878;SDS011;8556;52.218;9.884;2023-02-15T07:16:09;21.60;;;13.23;;
16878;SDS011;8556;52.218;9.884;2023-02-15T07:18:36;20.97;;;12.93;;
16878;SDS011;8556;52.218;9.884;2023-02-15T07:21:03;20.33;;;12.30;;
16878;SDS011;8556;52.218;9.884;2023-02-15T07:23:34;23.73;;;13.80;;
16878;SDS011;8556;52.218;9.884;2023-02-15T07:26:01;22.13;;;14.17;;
16878;SDS011;8556;52.218;9.884;2023-02-15T07:28:28;23.10;;;13.67;;
16878;SDS011;8556;52.218;9.884;2023-02-15T07:30:55;22.07;;;12.03;;
16878;SDS011;8556;52.218;9.884;2023-02-15T07:33:22;22.50;;;12.20;;
16878;SDS011;8556;52.218;9.884;2023-02-15T07:35:50;21.57;;;12.63;;
16878;SDS011;8556;52.218;9.884;2023-02-15T07:38:19;23.70;;;14.47;;
16878;SDS011;8556;52.218;9.884;2023-02-15T07:40:49;23.63;;;13.23;;
16878;SDS011;8556;52.218;9.884;2023-02-15T07:43:19;23.57;;;13.37;;
16878;SDS011;8556;52.218;9.884;2023-02-15T07:45:46;23.50;;;13.90;;
16878;SDS011;8556;52.218;9.884;2023-02-15T07:48:13;23.80;;;14.57;;
16878;SDS011;8556;52.218;9.884;2023-02-15T07:50:40;22.97;;;14.03;;
16878;SDS011;8556;52.218;9.884;2023-02-15T07:53:06;21.70;;;13.07;;
16878;SDS011;8556;52.218;9.884;2023-02-15T07:55:33;19.87;;;10.80;;
16878;SDS011;8556;52.218;9.884;2023-02-15T07:58:01;18.97;;;10.87;;
16878;SDS011;8556;52.218;9.884;2023-02-15T08:00:28;21.37;;;9.47;;
16878;SDS011;8556;52.218;9.884;2023-02-15T08:03:15;17.87;;;8.60;;
16878;SDS011;8556;52.218;9.884;2023-02-15T08:05:43;17.47;;;8.43;;
16878;SDS011;8556;52.218;9.884;2023-02-15T08:08:11;15.37;;;8.57;;
16878;SDS011;8556;52.218;9.884;2023-02-15T08:10:56;14.27;;;7.83;;
16878;SDS011;8556;52.218;9.884;2023-02-15T08:13:43;15.73;;;8.57;;
16878;SDS011;8556;52.218;9.884;2023-02-15T08:16:18;15.27;;;8.07;;
16878;SDS011;8556;52.218;9.884;2023-02-15T08:18:46;16.20;;;8.67;;
16878;SDS011;8556;52.218;9.884;2023-02-15T08:21:13;15.10;;;8.60;;
16878;SDS011;8556;52.218;9.884;2023-02-15T08:23:40;16.77;;;8.60;;
16878;SDS011;8556;52.218;9.884;2023-02-15T08:26:06;16.40;;;9.20;;
16878;SDS011;8556;52.218;9.884;2023-02-15T08:28:33;19.30;;;9.73;;
16878;SDS011;8556;52.218;9.884;2023-02-15T08:31:05;16.47;;;8.83;;
16878;SDS011;8556;52.218;9.884;2023-02-15T08:33:32;16.80;;;8.90;;
16878;SDS011;8556;52.218;9.884;2023-02-15T08:36:01;16.97;;;8.87;;
16878;SDS011;8556;52.218;9.884;2023-02-15T08:38:29;17.00;;;8.50;;
16878;SDS011;8556;52.218;9.884;2023-02-15T08:40:56;14.90;;;8.73;;
16878;SDS011;8556;52.218;9.884;2023-02-15T08:43:22;15.73;;;8.57;;
16878;SDS011;8556;52.218;9.884;2023-02-15T08:45:49;17.60;;;8.90;;
16878;SDS011;8556;52.218;9.884;2023-02-15T08:48:17;16.33;;;9.10;;
16878;SDS011;8556;52.218;9.884;2023-02-15T08:50:44;14.87;;;8.43;;
16878;SDS011;8556;52.218;9.884;2023-02-15T08:53:11;15.90;;;8.20;;
16878;SDS011;8556;52.218;9.884;2023-02-15T08:55:38;15.00;;;8.33;;
16878;SDS011;8556;52.218;9.884;2023-02-15T08:58:05;17.20;;;9.13;;
16878;SDS011;8556;52.218;9.884;2023-02-15T09:00:32;15.20;;;8.27;;
16878;SDS011;8556;52.218;9.884;2023-02-15T09:02:59;15.60;;;8.67;;
16878;SDS011;8556;52.218;9.884;2023-02-15T09:05:27;16.70;;;9.03;;
16878;SDS011;8556;52.218;9.884;2023-02-15T09:07:54;16.07;;;8.47;;
16878;SDS011;8556;52.218;9.884;2023-02-15T09:10:21;17.50;;;8.90;;
16878;SDS011;8556;52.218;9.884;2023-02-15T09:12:48;16.83;;;9.07;;
16878;SDS011;8556;52.218;9.884;2023-02-15T09:15:16;16.47;;;9.23;;
16878;SDS011;8556;52.218;9.884;2023-02-15T09:17:43;17.03;;;9.07;;
16878;SDS011;8556;52.218;9.884;2023-02-15T09:20:10;16.23;;;8.67;;
16878;SDS011;8556;52.218;9.884;2023-02-15T09:22:38;16.40;;;8.00;;
16878;SDS011;8556;52.218;9.884;2023-02-15T09:25:05;17.17;;;8.87;;
16878;SDS011;8556;52.218;9.884;2023-02-15T09:27:32;17.10;;;8.67;;
16878;SDS011;8556;52.218;9.884;2023-02-15T09:29:59;17.90;;;8.87;;
16878;SDS011;8556;52.218;9.884;2023-02-15T09:32:26;16.50;;;8.67;;
16878;SDS011;8556;52.218;9.884;2023-02-15T09:34:52;17.67;;;9.60;;
16878;SDS011;8556;52.218;9.884;2023-02-15T09:37:20;17.97;;;8.90;;
16878;SDS011;8556;52.218;9.884;2023-02-15T09:39:48;16.60;;;8.60;;
16878;SDS011;8556;52.218;9.884;2023-02-15T09:42:28;16.00;;;8.37;;
16878;SDS011;8556;52.218;9.884;2023-02-15T09:50:54;19.07;;;8.53;;
16878;SDS011;8556;52.218;9.884;2023-02-15T09:53:37;14.40;;;7.90;;
16878;SDS011;8556;52.218;9.884;2023-02-15T09:56:19;14.47;;;7.97;;
16878;SDS011;8556;52.218;9.884;2023-02-15T09:58:54;14.17;;;7.90;;
16878;SDS011;8556;52.218;9.884;2023-02-15T10:01:30;15.97;;;8.50;;
16878;SDS011;8556;52.218;9.884;2023-02-15T10:04:19;15.33;;;8.13;;
16878;SDS011;8556;52.218;9.884;2023-02-15T10:07:03;14.33;;;7.77;;
16878;SDS011;8556;52.218;9.884;2023-02-15T10:09:40;15.53;;;7.93;;
16878;SDS011;8556;52.218;9.884;2023-02-15T10:12:32;15.00;;;7.97;;
16878;SDS011;8556;52.218;9.884;2023-02-15T10:15:19;13.87;;;7.80;;
16878;SDS011;8556;52.218;9.884;2023-02-15T10:18:04;13.90;;;7.67;;
16878;SDS011;8556;52.218;9.884;2023-02-15T10:20:42;12.30;;;6.97;;
16878;SDS011;8556;52.218;9.884;2023-02-15T10:23:21;12.90;;;7.63;;
16878;SDS011;8556;52.218;9.884;2023-02-15T10:25:59;14.07;;;7.40;;
16878;SDS011;8556;52.218;9.884;2023-02-15T10:28:34;14.43;;;8.53;;
16878;SDS011;8556;52.218;9.884;2023-02-15T10:31:10;13.77;;;8.03;;
16878;SDS011;8556;52.218;9.884;2023-02-15T10:33:47;12.97;;;7.33;;
16878;SDS011;8556;52.218;9.884;2023-02-15T10:36:22;14.30;;;7.37;;
16878;SDS011;8556;52.218;9.884;2023-02-15T10:39:00;14.63;;;8.00;;
16878;SDS011;8556;52.218;9.884;2023-02-15T10:41:35;14.00;;;7.40;;
16878;SDS011;8556;52.218;9.884;2023-02-15T10:44:17;13.43;;;7.17;;
16878;SDS011;8556;52.218;9.884;2023-02-15T10:46:57;12.23;;;7.70;;
16878;SDS011;8556;52.218;9.884;2023-02-15T10:49:53;14.23;;;7.97;;
16878;SDS011;8556;52.218;9.884;2023-02-15T10:52:47;13.03;;;7.70;;
16878;SDS011;8556;52.218;9.884;2023-02-15T10:55:28;13.70;;;7.57;;
16878;SDS011;8556;52.218;9.884;2023-02-15T10:58:05;14.63;;;7.60;;
16878;SDS011;8556;52.218;9.884;2023-02-15T11:00:45;12.33;;;7.50;;
16878;SDS011;8556;52.218;9.884;2023-02-15T11:03:20;15.17;;;7.73;;
16878;SDS011;8556;52.218;9.884;2023-02-15T11:05:58;13.73;;;7.63;;
16878;SDS011;8556;52.218;9.884;2023-02-15T11:08:31;14.70;;;8.27;;
16878;SDS011;8556;52.218;9.884;2023-02-15T11:11:02;11.90;;;7.53;;
16878;SDS011;8556;52.218;9.884;2023-02-15T11:13:33;14.50;;;7.87;;
16878;SDS011;8556;52.218;9.884;2023-02-15T11:16:07;13.87;;;7.50;;
16878;SDS011;8556;52.218;9.884;2023-02-15T11:18:39;13.53;;;7.90;;
16878;SDS011;8556;52.218;9.884;2023-02-15T11:21:11;13.37;;;7.53;;
16878;SDS011;8556;52.218;9.884;2023-02-15T11:23:44;12.60;;;7.33;;
16878;SDS011;8556;52.218;9.884;2023-02-15T11:26:12;13.83;;;7.97;;
16878;SDS011;8556;52.218;9.884;2023-02-15T11:28:45;12.97;;;7.67;;
16878;SDS011;8556;52.218;9.884;2023-02-15T11:31:17;12.60;;;7.67;;
16878;SDS011;8556;52.218;9.884;2023-02-15T11:33:47;14.00;;;8.27;;
16878;SDS011;8556;52.218;9.884;2023-02-15T11:36:20;15.60;;;8.33;;
16878;SDS011;8556;52.218;9.884;2023-02-15T11:38:50;15.10;;;7.70;;
16878;SDS011;8556;52.218;9.884;2023-02-15T11:41:23;13.57;;;8.13;;
16878;SDS011;8556;52.218;9.884;2023-02-15T11:43:54;14.10;;;7.47;;
16878;SDS011;8556;52.218;9.884;2023-02-15T11:46:28;11.67;;;7.40;;
16878;SDS011;8556;52.218;9.884;2023-02-15T11:48:55;12.07;;;7.10;;
16878;SDS011;8556;52.218;9.884;2023-02-15T11:51:23;12.83;;;8.10;;
16878;SDS011;8556;52.218;9.884;2023-02-15T11:53:52;13.23;;;7.90;;
16878;SDS011;8556;52.218;9.884;2023-02-15T11:56:20;12.40;;;7.50;;
16878;SDS011;8556;52.218;9.884;2023-02-15T11:58:49;11.80;;;7.63;;
16878;SDS011;8556;52.218;9.884;2023-02-15T12:01:21;14.47;;;8.23;;
16878;SDS011;8556;52.218;9.884;2023-02-15T12:06:51;13.53;;;8.47;;
16878;SDS011;8556;52.218;9.884;2023-02-15T12:09:24;14.13;;;7.90;;
16878;SDS011;8556;52.218;9.884;2023-02-15T12:11:56;11.87;;;7.37;;
16878;SDS011;8556;52.218;9.884;2023-02-15T12:14:48;12.13;;;7.80;;
16878;SDS011;8556;52.218;9.884;2023-02-15T12:17:20;13.87;;;8.13;;
16878;SDS011;8556;52.218;9.884;2023-02-15T12:19:49;13.93;;;8.17;;
16878;SDS011;8556;52.218;9.884;2023-02-15T12:22:20;12.03;;;7.97;;
16878;SDS011;8556;52.218;9.884;2023-02-15T12:24:50;12.87;;;8.23;;
16878;SDS011;8556;52.218;9.884;2023-02-15T12:27:19;12.83;;;8.37;;
16878;SDS011;8556;52.218;9.884;2023-02-15T12:29:50;13.67;;;7.63;;
16878;SDS011;8556;52.218;9.884;2023-02-15T12:32:21;13.97;;;8.80;;
16878;SDS011;8556;52.218;9.884;2023-02-15T12:34:50;13.37;;;8.40;;
16878;SDS011;8556;52.218;9.884;2023-02-15T12:37:19;13.10;;;8.43;;
16878;SDS011;8556;52.218;9.884;2023-02-15T12:39:53;14.73;;;8.93;;
16878;SDS011;8556;52.218;9.884;2023-02-15T12:42:22;13.93;;;8.67;;
16878;SDS011;8556;52.218;9.884;2023-02-15T12:44:54;12.53;;;8.33;;
16878;SDS011;8556;52.218;9.884;2023-02-15T12:47:23;13.50;;;8.77;;
16878;SDS011;8556;52.218;9.884;2023-02-15T12:50:05;14.97;;;8.70;;
16878;SDS011;8556;52.218;9.884;2023-02-15T12:52:41;13.13;;;8.47;;
16878;SDS011;8556;52.218;9.884;2023-02-15T12:55:10;15.07;;;9.13;;
16878;SDS011;8556;52.218;9.884;2023-02-15T12:57:48;13.93;;;9.03;;
16878;SDS011;8556;52.218;9.884;2023-02-15T13:00:26;13.30;;;8.20;;
16878;SDS011;8556;52.218;9.884;2023-02-15T13:02:56;15.27;;;9.20;;
16878;SDS011;8556;52.218;9.884;2023-02-15T13:05:26;15.03;;;8.93;;
16878;SDS011;8556;52.218;9.884;2023-02-15T13:07:58;14.53;;;8.40;;
16878;SDS011;8556;52.218;9.884;2023-02-15T13:10:27;14.00;;;8.73;;
16878;SDS011;8556;52.218;9.884;2023-02-15T13:12:57;16.23;;;9.00;;
16878;SDS011;8556;52.218;9.884;2023-02-15T13:15:29;12.53;;;8.00;;
16878;SDS011;8556;52.218;9.884;2023-02-15T13:18:15;13.77;;;8.30;;
16878;SDS011;8556;52.218;9.884;2023-02-15T13:20:46;12.20;;;7.87;;
16878;SDS011;8556;52.218;9.884;2023-02-15T13:23:23;11.90;;;8.23;;
16878;SDS011;8556;52.218;9.884;2023-02-15T13:25:55;13.90;;;8.10;;
16878;SDS011;8556;52.218;9.884;2023-02-15T13:28:31;13.80;;;8.80;;
16878;SDS011;8556;52.218;9.884;2023-02-15T13:31:07;13.10;;;8.43;;
16878;SDS011;8556;52.218;9.884;2023-02-15T13:33:39;13.43;;;8.60;;
16878;SDS011;8556;52.218;9.884;2023-02-15T13:36:12;12.23;;;8.10;;
16878;SDS011;8556;52.218;9.884;2023-02-15T13:38:46;14.10;;;8.97;;
16878;SDS011;8556;52.218;9.884;2023-02-15T13:41:23;11.77;;;7.87;;
16878;SDS011;8556;52.218;9.884;2023-02-15T13:44:03;12.47;;;8.20;;
16878;SDS011;8556;52.218;9.884;2023-02-15T13:46:53;16.00;;;9.20;;
16878;SDS011;8556;52.218;9.884;2023-02-15T13:49:36;15.97;;;9.33;;
16878;SDS011;8556;52.218;9.884;2023-02-15T13:52:15;16.43;;;8.87;;
16878;SDS011;8556;52.218;9.884;2023-02-15T13:58:05;14.97;;;9.87;;
16878;SDS011;8556;52.218;9.884;2023-02-15T14:00:54;15.93;;;9.20;;
16878;SDS011;8556;52.218;9.884;2023-02-15T14:03:45;15.03;;;8.93;;
16878;SDS011;8556;52.218;9.884;2023-02-15T14:06:34;15.00;;;9.30;;
16878;SDS011;8556;52.218;9.884;2023-02-15T14:09:14;15.07;;;9.33;;
16878;SDS011;8556;52.218;9.884;2023-02-15T14:11:50;16.10;;;9.87;;
16878;SDS011;8556;52.218;9.884;2023-02-15T14:14:31;16.57;;;9.70;;
16878;SDS011;8556;52.218;9.884;2023-02-15T14:17:14;16.23;;;9.80;;
16878;SDS011;8556;52.218;9.884;2023-02-15T14:19:48;14.33;;;8.67;;
16878;SDS011;8556;52.218;9.884;2023-02-15T14:22:29;18.20;;;10.17;;
16878;SDS011;8556;52.218;9.884;2023-02-15T14:25:06;15.23;;;9.73;;
16878;SDS011;8556;52.218;9.884;2023-02-15T14:27:50;15.43;;;9.60;;
16878;SDS011;8556;52.218;9.884;2023-02-15T14:30:29;17.27;;;9.83;;
16878;SDS011;8556;52.218;9.884;2023-02-15T14:33:01;15.80;;;8.87;;
16878;SDS011;8556;52.218;9.884;2023-02-15T14:35:32;14.13;;;8.93;;
16878;SDS011;8556;52.218;9.884;2023-02-15T14:38:04;16.83;;;9.40;;
16878;SDS011;8556;52.218;9.884;2023-02-15T14:40:47;17.17;;;10.50;;
16878;SDS011;8556;52.218;9.884;2023-02-15T14:43:39;16.77;;;9.60;;
16878;SDS011;8556;52.218;9.884;2023-02-15T14:46:18;15.30;;;9.27;;
16878;SDS011;8556;52.218;9.884;2023-02-15T14:48:53;17.30;;;10.17;;
16878;SDS011;8556;52.218;9.884;2023-02-15T14:57:34;13.80;;;9.17;;
16878;SDS011;8556;52.218;9.884;2023-02-15T15:03:12;16.00;;;8.87;;
16878;SDS011;8556;52.218;9.884;2023-02-15T15:05:50;15.03;;;9.73;;
16878;SDS011;8556;52.218;9.884;2023-02-15T15:08:25;14.87;;;8.70;;
16878;SDS011;8556;52.218;9.884;2023-02-15T15:10:55;15.23;;;9.70;;
16878;SDS011;8556;52.218;9.884;2023-02-15T15:13:38;14.40;;;9.23;;
16878;SDS011;8556;52.218;9.884;2023-02-15T15:16:29;16.33;;;9.63;;
16878;SDS011;8556;52.218;9.884;2023-02-15T15:22:41;15.73;;;9.03;;
16878;SDS011;8556;52.218;9.884;2023-02-15T15:28:08;14.63;;;9.07;;
16878;SDS011;8556;52.218;9.884;2023-02-15T15:33:47;14.20;;;9.13;;
16878;SDS011;8556;52.218;9.884;2023-02-15T15:42:42;15.87;;;9.40;;
16878;SDS011;8556;52.218;9.884;2023-02-15T15:48:28;16.43;;;9.80;;
16878;SDS011;8556;52.218;9.884;2023-02-15T15:51:00;16.17;;;9.37;;
16878;SDS011;8556;52.218;9.884;2023-02-15T15:53:31;18.33;;;9.83;;
16878;SDS011;8556;52.218;9.884;2023-02-15T15:56:08;15.40;;;9.10;;